Time;durP1;ratioP1;P1;durP2;ratioP2;P2;SDS_P1;SDS_P2;PMS_P1;PMS_P2;Temp;Humidity;BMP_temperature;BMP_pressure;BME280_temperature;BME280_humidity;BME280_pressure;Samples;Min_cycle;Max_cycle;Signal;HPM_P1;HPM_P2
2020/12/12 00:02:17;;;;;;;38.47;15.00;;;3.50;99.90;;;;;;5110467;28;20035;-79
2020/12/12 00:04:44;;;;;;;15.68;7.05;;;3.50;99.90;;;;;;5111562;28;20039;-80
2020/12/12 00:07:14;;;;;;;32.20;13.30;;;;;;;;;;5109798;28;20100;-80
2020/12/12 00:09:39;;;;;;;;;;;3.50;99.90;;;;;;5109874;28;20044;-80
2020/12/12 00:12:05;;;;;;;27.90;11.57;;;3.50;99.90;;;;;;5111381;28;19931;-79
2020/12/12 00:14:31;;;;;;;26.63;10.43;;;3.50;99.90;;;;;;5110255;28;20070;-79
2020/12/12 00:16:59;;;;;;;24.70;10.45;;;3.50;99.90;;;;;;5111049;28;20078;-79
2020/12/12 00:19:24;;;;;;;25.80;11.40;;;3.40;99.90;;;;;;5109479;28;20067;-79
2020/12/12 00:21:51;;;;;;;9.52;4.57;;;;;;;;;;5111209;28;20582;-79
2020/12/12 00:24:17;;;;;;;10.50;5.32;;;;;;;;;;5109909;28;20051;-80
2020/12/12 00:26:43;;;;;;;24.80;12.30;;;3.40;99.90;;;;;;5111052;28;20062;-80
2020/12/12 00:29:09;;;;;;;29.73;13.00;;;;;;;;;;5109425;28;20442;-79
2020/12/12 00:31:35;;;;;;;27.88;11.38;;;3.40;99.90;;;;;;5110203;28;20047;-80
2020/12/12 00:34:04;;;;;;;23.80;10.00;;;3.40;99.90;;;;;;5110321;28;20447;-80
2020/12/12 00:36:29;;;;;;;13.13;6.50;;;3.50;99.90;;;;;;5108379;28;20036;-79
2020/12/12 00:38:56;;;;;;;15.93;8.80;;;3.50;99.90;;;;;;5109538;28;20136;-79
2020/12/12 00:41:21;;;;;;;25.60;10.10;;;3.50;99.90;;;;;;5111069;28;20481;-79
2020/12/12 00:43:47;;;;;;;14.63;7.18;;;;;;;;;;5111293;28;20071;-79
2020/12/12 00:46:13;;;;;;;20.42;9.30;;;3.50;99.90;;;;;;5110134;28;20088;-79
2020/12/12 00:48:39;;;;;;;22.90;9.95;;;3.50;99.90;;;;;;5112434;28;20114;-79
2020/12/12 00:51:04;;;;;;;18.63;9.38;;;3.50;99.90;;;;;;5113793;28;20508;-79
2020/12/12 00:53:30;;;;;;;17.17;8.82;;;3.50;99.90;;;;;;5111997;28;20073;-79
2020/12/12 00:55:56;;;;;;;15.85;7.88;;;3.60;99.90;;;;;;5113181;28;20119;-79
2020/12/12 00:58:22;;;;;;;21.55;10.65;;;3.60;99.90;;;;;;5114011;28;20104;-79
2020/12/12 01:00:48;;;;;;;21.90;10.98;;;3.50;99.90;;;;;;5111975;28;20035;-79
2020/12/12 01:03:14;;;;;;;16.65;8.63;;;;;;;;;;5114192;28;20077;-79
2020/12/12 01:05:39;;;;;;;16.60;7.82;;;3.60;99.90;;;;;;5114141;28;20039;-79
2020/12/12 01:08:05;;;;;;;20.48;10.00;;;3.60;99.90;;;;;;5112309;28;20042;-79
2020/12/12 01:10:31;;;;;;;22.75;10.43;;;3.60;99.90;;;;;;5113447;28;20542;-79
2020/12/12 01:12:58;;;;;;;21.88;9.90;;;;;;;;;;5113859;28;20481;-79
2020/12/12 01:15:24;;;;;;;24.67;10.32;;;3.70;99.90;;;;;;5112651;28;20135;-79
2020/12/12 01:17:49;;;;;;;16.02;8.50;;;3.70;99.90;;;;;;5113459;28;20071;-78
2020/12/12 01:20:15;;;;;;;23.48;11.43;;;3.70;99.90;;;;;;5113296;28;20036;-79
2020/12/12 01:22:40;;;;;;;21.70;10.13;;;3.60;99.90;;;;;;5113796;28;20047;-79
2020/12/12 01:25:06;;;;;;;22.67;10.60;;;3.70;99.90;;;;;;5113864;28;20052;-79
2020/12/12 01:27:32;;;;;;;24.73;11.10;;;3.70;99.90;;;;;;5112706;28;20042;-79
2020/12/12 01:29:58;;;;;;;18.33;9.18;;;3.70;99.90;;;;;;5113023;28;20382;-79
2020/12/12 01:32:24;;;;;;;21.30;10.15;;;;;;;;;;5113446;28;20047;-79
2020/12/12 01:34:50;;;;;;;21.10;10.57;;;3.70;99.90;;;;;;5112161;28;20100;-79
2020/12/12 01:37:16;;;;;;;20.17;10.50;;;;;;;;;;5112284;28;20062;-79
2020/12/12 01:39:41;;;;;;;27.67;12.15;;;3.70;99.90;;;;;;5111767;28;20043;-79
2020/12/12 01:42:07;;;;;;;18.17;8.93;;;3.70;99.90;;;;;;5113472;28;20036;-79
2020/12/12 01:44:32;;;;;;;23.30;11.07;;;3.80;99.90;;;;;;5113544;28;20044;-79
2020/12/12 01:47:00;;;;;;;19.85;10.10;;;3.80;99.90;;;;;;5111969;28;20123;-79
2020/12/12 01:49:26;;;;;;;24.13;12.02;;;3.70;99.90;;;;;;5112680;28;20134;-79
2020/12/12 01:51:52;;;;;;;26.63;11.30;;;3.70;99.90;;;;;;5112162;28;20134;-79
2020/12/12 01:54:18;;;;;;;20.50;11.00;;;3.80;99.90;;;;;;5113639;28;20075;-79
2020/12/12 01:56:46;;;;;;;21.25;10.70;;;3.80;99.90;;;;;;5112527;28;20046;-79
2020/12/12 01:59:12;;;;;;;24.23;11.50;;;3.90;99.90;;;;;;5112951;28;20093;-79
2020/12/12 02:01:38;;;;;;;27.02;11.85;;;3.90;99.90;;;;;;5112008;28;20040;-80
2020/12/12 02:04:06;;;;;;;25.67;12.20;;;;;;;;;;5115561;28;20049;-79
2020/12/12 02:06:34;;;;;;;22.65;11.77;;;3.70;99.90;;;;;;5116988;27;20089;-79
2020/12/12 02:08:59;;;;;;;24.90;12.35;;;3.70;99.90;;;;;;5116546;28;20043;-80
2020/12/12 02:11:25;;;;;;;11.15;5.97;;;3.60;99.90;;;;;;5117084;28;20031;-79
2020/12/12 02:13:51;;;;;;;24.70;12.27;;;3.60;99.90;;;;;;5116099;28;20073;-79
2020/12/12 02:16:18;;;;;;;24.90;11.15;;;3.70;99.90;;;;;;5116986;28;20047;-79
2020/12/12 02:18:44;;;;;;;25.35;13.20;;;3.60;99.90;;;;;;5115081;28;20046;-79
2020/12/12 02:21:11;;;;;;;27.20;12.70;;;3.50;99.90;;;;;;5115808;28;20082;-80
2020/12/12 02:23:37;;;;;;;30.67;14.57;;;3.60;99.90;;;;;;5116940;28;20498;-79
2020/12/12 02:26:04;;;;;;;31.10;13.90;;;3.60;99.90;;;;;;5117549;28;20046;-79
2020/12/12 02:28:54;;;;;;;27.13;12.65;;;3.50;99.90;;;;;;5115527;28;20043;-79
2020/12/12 02:31:16;;;;;;;32.17;14.63;;;3.50;99.90;;;;;;5116348;28;20042;-79
2020/12/12 02:33:41;;;;;;;33.95;14.48;;;3.50;99.90;;;;;;5115430;28;20043;-79
2020/12/12 02:36:07;;;;;;;25.90;12.73;;;3.50;99.90;;;;;;5116999;28;20374;-79
2020/12/12 02:38:34;;;;;;;30.42;12.90;;;3.40;99.90;;;;;;5116662;28;20063;-79
2020/12/12 02:41:00;;;;;;;15.10;7.25;;;3.50;99.90;;;;;;5115191;28;20031;-79
2020/12/12 02:43:26;;;;;;;27.08;13.82;;;3.50;99.90;;;;;;5115462;28;20051;-79
2020/12/12 02:45:52;;;;;;;28.73;12.40;;;;;;;;;;5116742;28;20035;-79
2020/12/12 02:48:17;;;;;;;31.33;15.07;;;3.50;99.90;;;;;;5116505;28;20036;-79
2020/12/12 02:50:44;;;;;;;26.13;12.07;;;3.50;99.90;;;;;;5114655;28;20040;-79
2020/12/12 02:53:09;;;;;;;33.40;15.10;;;3.60;99.90;;;;;;5116503;28;20039;-79
2020/12/12 02:55:35;;;;;;;29.40;14.02;;;3.50;99.90;;;;;;5116478;28;20032;-79
2020/12/12 02:58:02;;;;;;;29.52;14.02;;;3.50;99.90;;;;;;5115117;28;20036;-80
2020/12/12 03:00:28;;;;;;;27.20;13.70;;;3.50;99.90;;;;;;5114582;28;20331;-79
2020/12/12 03:02:54;;;;;;;32.88;14.57;;;3.50;99.90;;;;;;5116210;28;20513;-79
2020/12/12 03:05:20;;;;;;;26.40;12.48;;;3.50;99.90;;;;;;5116254;28;20074;-79
2020/12/12 03:07:45;;;;;;;15.18;7.70;;;3.60;99.90;;;;;;5116293;28;20035;-79
2020/12/12 03:10:11;;;;;;;28.10;11.30;;;3.50;99.90;;;;;;5115486;28;20062;-79
2020/12/12 03:12:38;;;;;;;36.58;15.05;;;3.60;99.90;;;;;;5116167;27;20685;-79
2020/12/12 03:15:06;;;;;;;31.98;13.95;;;3.60;99.90;;;;;;5113976;28;20043;-79
2020/12/12 03:17:32;;;;;;;23.48;10.32;;;3.60;99.90;;;;;;5115677;28;20055;-79
2020/12/12 03:19:58;;;;;;;30.55;14.02;;;3.60;99.90;;;;;;5114178;28;20042;-79
2020/12/12 03:22:23;;;;;;;33.97;16.17;;;3.60;99.90;;;;;;5116007;28;20043;-79
2020/12/12 03:24:49;;;;;;;31.48;14.77;;;3.60;99.90;;;;;;5114726;28;20108;-79
2020/12/12 03:27:14;;;;;;;35.13;15.70;;;3.60;99.90;;;;;;5115882;28;20040;-79
2020/12/12 03:29:40;;;;;;;34.67;15.38;;;3.70;99.90;;;;;;5113735;28;20036;-79
2020/12/12 03:32:07;;;;;;;34.17;15.80;;;3.70;99.90;;;;;;5115766;28;20400;-79
2020/12/12 03:34:33;;;;;;;31.65;14.43;;;3.70;99.90;;;;;;5114185;28;20044;-79
2020/12/12 03:36:58;;;;;;;35.85;15.00;;;3.70;99.90;;;;;;5114664;28;20516;-79
2020/12/12 03:39:24;;;;;;;37.13;15.98;;;3.80;99.90;;;;;;5113456;28;20126;-79
2020/12/12 03:41:49;;;;;;;29.95;14.82;;;3.70;99.90;;;;;;5116576;28;20469;-80
2020/12/12 03:44:15;;;;;;;34.70;15.95;;;3.80;99.90;;;;;;5117832;28;20044;-79
2020/12/12 03:46:41;;;;;;;31.65;15.52;;;3.80;99.90;;;;;;5115726;28;20043;-79
2020/12/12 03:49:07;;;;;;;34.28;15.80;;;3.80;99.90;;;;;;5114380;28;20035;-80
2020/12/12 03:51:33;;;;;;;31.67;15.63;;;;;;;;;;5115879;28;20382;-80
2020/12/12 03:53:58;;;;;;;35.25;14.93;;;3.90;99.90;;;;;;5114273;28;20040;-79
2020/12/12 03:56:24;;;;;;;31.55;15.60;;;3.90;99.90;;;;;;5115480;28;20118;-79
2020/12/12 03:58:50;;;;;;;30.13;15.35;;;3.90;99.90;;;;;;5113245;28;20039;-80
2020/12/12 04:01:15;;;;;;;33.00;15.65;;;4.00;99.90;;;;;;5113989;28;20039;-79
2020/12/12 04:03:41;;;;;;;29.38;14.77;;;3.80;99.90;;;;;;5115666;28;20115;-80
2020/12/12 04:06:07;;;;;;;29.67;15.57;;;3.80;99.90;;;;;;5117518;28;20032;-80
2020/12/12 04:08:33;;;;;;;33.60;15.95;;;3.90;99.90;;;;;;5117058;28;20043;-79
2020/12/12 04:11:00;;;;;;;30.50;15.23;;;4.00;99.90;;;;;;5114971;28;20036;-79
2020/12/12 04:13:26;;;;;;;29.33;14.45;;;4.00;99.90;;;;;;5117086;28;20042;-79
2020/12/12 04:15:51;;;;;;;30.98;15.00;;;4.10;99.90;;;;;;5115357;28;20118;-79
2020/12/12 04:18:17;;;;;;;28.05;13.82;;;4.00;99.90;;;;;;5114776;28;20396;-80
2020/12/12 04:20:42;;;;;;;32.25;16.08;;;4.10;99.90;;;;;;5113170;28;20036;-79
2020/12/12 04:23:09;;;;;;;29.20;14.95;;;4.10;99.90;;;;;;5113552;28;20401;-79
2020/12/12 04:25:34;;;;;;;30.60;14.30;;;4.10;99.90;;;;;;5117902;28;20043;-79
2020/12/12 04:28:00;;;;;;;30.77;14.90;;;4.00;99.90;;;;;;5112625;28;20067;-79
2020/12/12 04:30:26;;;;;;;27.27;13.10;;;4.10;99.90;;;;;;5112457;28;20469;-79
2020/12/12 04:32:51;;;;;;;33.40;14.93;;;4.10;99.90;;;;;;5113513;28;20043;-78
2020/12/12 04:35:17;;;;;;;29.85;14.90;;;4.10;99.90;;;;;;5113349;28;20058;-79
2020/12/12 04:37:42;;;;;;;28.77;14.25;;;4.10;99.90;;;;;;5114508;27;20424;-79
2020/12/12 04:40:10;;;;;;;30.33;14.48;;;4.10;99.90;;;;;;5113563;28;20075;-79
2020/12/12 04:42:37;;;;;;;32.72;14.32;;;4.00;99.90;;;;;;5113309;28;20469;-79
2020/12/12 04:45:03;;;;;;;32.90;15.27;;;4.10;99.90;;;;;;5114446;28;20039;-79
2020/12/12 04:47:29;;;;;;;31.05;14.07;;;;;;;;;;5114401;28;20036;-79
2020/12/12 04:49:55;;;;;;;28.88;13.93;;;4.20;99.90;;;;;;5113189;28;20139;-79
2020/12/12 04:52:23;;;;;;;26.70;14.10;;;4.20;99.90;;;;;;5114624;28;20536;-79
2020/12/12 04:54:51;;;;;;;30.15;13.85;;;4.20;99.90;;;;;;5114341;28;20114;-79
2020/12/12 04:57:18;;;;;;;29.02;14.18;;;4.20;99.90;;;;;;5113099;28;20085;-79
2020/12/12 04:59:44;;;;;;;29.75;14.38;;;4.10;99.90;;;;;;5112184;28;20039;-79
2020/12/12 05:02:14;;;;;;;28.83;13.88;;;4.10;99.90;;;;;;5115125;28;20435;-80
2020/12/12 05:04:40;;;;;;;28.67;14.70;;;4.20;99.90;;;;;;5115735;28;20039;-79
2020/12/12 05:07:07;;;;;;;27.48;13.65;;;4.20;99.90;;;;;;5112795;28;20381;-79
2020/12/12 05:09:32;;;;;;;27.45;13.55;;;4.20;99.90;;;;;;5113299;28;20074;-79
2020/12/12 05:11:58;;;;;;;30.52;14.45;;;4.20;99.90;;;;;;5113910;28;20073;-79
2020/12/12 05:14:25;;;;;;;28.17;14.00;;;4.20;99.90;;;;;;5113895;28;20043;-79
2020/12/12 05:16:54;;;;;;;29.73;14.65;;;4.20;99.90;;;;;;5113693;28;20118;-79
2020/12/12 05:19:20;;;;;;;30.67;14.33;;;4.20;99.90;;;;;;5113206;28;20035;-79
2020/12/12 05:21:46;;;;;;;27.38;14.50;;;4.20;99.90;;;;;;5113529;28;20044;-79
2020/12/12 05:24:12;;;;;;;30.13;13.70;;;4.20;99.90;;;;;;5113762;28;20039;-79
2020/12/12 05:26:38;;;;;;;27.10;13.30;;;4.20;99.90;;;;;;5113796;28;20434;-79
2020/12/12 05:29:05;;;;;;;28.80;13.70;;;4.10;99.90;;;;;;5111935;28;20400;-79
2020/12/12 05:31:31;;;;;;;26.98;13.40;;;4.10;99.90;;;;;;5112325;28;20036;-79
2020/12/12 05:34:07;;;;;;;27.63;13.77;;;4.30;99.90;;;;;;5114218;28;20067;-79
2020/12/12 05:36:34;;;;;;;29.25;14.07;;;4.30;99.90;;;;;;5112173;28;20049;-79
2020/12/12 05:39:00;;;;;;;30.05;14.05;;;4.30;99.90;;;;;;5111453;28;20071;-79
2020/12/12 05:41:26;;;;;;;28.83;14.10;;;4.30;99.90;;;;;;5112783;28;20067;-80
2020/12/12 05:43:51;;;;;;;30.23;14.68;;;4.30;99.90;;;;;;5114427;28;20476;-79
2020/12/12 05:46:20;;;;;;;28.90;14.40;;;4.20;99.90;;;;;;5114813;28;20103;-79
2020/12/12 05:48:47;;;;;;;30.50;13.60;;;4.30;99.90;;;;;;5113146;28;20058;-79
2020/12/12 05:51:14;;;;;;;29.20;13.75;;;4.30;99.90;;;;;;5112295;28;20032;-79
2020/12/12 05:53:43;;;;;;;28.52;13.20;;;4.30;99.90;;;;;;5114122;28;20493;-79
2020/12/12 05:56:10;;;;;;;28.98;13.27;;;4.30;99.90;;;;;;5113668;28;20035;-79
2020/12/12 05:58:35;;;;;;;27.33;13.88;;;4.40;99.90;;;;;;5114370;28;20047;-80
2020/12/12 06:01:01;;;;;;;26.08;11.88;;;4.40;99.90;;;;;;5115385;28;20389;-80
2020/12/12 06:03:30;;;;;;;25.98;13.00;;;4.50;99.90;;;;;;5114816;28;20078;-80
2020/12/12 06:06:04;;;;;;;25.45;12.68;;;4.50;99.90;;;;;;5114772;28;20416;-79
2020/12/12 06:08:33;;;;;;;28.88;12.18;;;4.60;99.90;;;;;;5114420;28;20044;-80
2020/12/12 06:11:03;;;;;;;25.33;13.20;;;4.60;99.90;;;;;;5114887;28;20046;-79
2020/12/12 06:13:34;;;;;;;24.55;12.20;;;4.70;99.90;;;;;;5115977;28;20067;-79
2020/12/12 06:16:02;;;;;;;28.98;13.52;;;4.60;99.90;;;;;;5116890;28;20088;-80
2020/12/12 06:18:37;;;;;;;25.65;13.02;;;4.60;99.90;;;;;;5115874;28;20040;-79
2020/12/12 06:21:08;;;;;;;26.08;13.02;;;4.70;99.90;;;;;;5115679;28;20031;-80
2020/12/12 06:23:37;;;;;;;26.00;12.63;;;4.70;99.90;;;;;;5114329;28;20540;-80
2020/12/12 06:26:03;;;;;;;22.17;11.95;;;4.70;99.90;;;;;;5114072;28;20050;-80
2020/12/12 06:28:31;;;;;;;25.75;12.57;;;4.70;99.90;;;;;;5114851;28;20046;-80
2020/12/12 06:30:57;;;;;;;26.17;12.30;;;4.70;99.90;;;;;;5114326;28;20460;-80
2020/12/12 06:33:23;;;;;;;27.42;12.98;;;4.70;99.90;;;;;;5114212;28;20027;-80
2020/12/12 06:35:48;;;;;;;25.95;11.93;;;4.80;99.90;;;;;;5114176;28;20488;-80
2020/12/12 06:38:23;;;;;;;25.85;12.20;;;4.70;99.90;;;;;;5114026;28;20084;-80
2020/12/12 06:40:51;;;;;;;22.95;12.85;;;4.80;99.90;;;;;;5113143;28;20115;-79
2020/12/12 06:43:30;;;;;;;25.73;12.13;;;4.70;99.90;;;;;;5113012;28;20397;-79
2020/12/12 06:45:57;;;;;;;26.20;12.55;;;4.70;99.90;;;;;;5113339;28;20392;-79
2020/12/12 06:48:24;;;;;;;28.98;13.20;;;4.60;99.90;;;;;;5113428;28;20039;-79
2020/12/12 06:50:50;;;;;;;24.65;12.75;;;4.50;99.90;;;;;;5119730;28;20043;-81
2020/12/12 06:53:17;;;;;;;25.08;11.95;;;4.60;99.90;;;;;;5122839;28;20507;-80
2020/12/12 06:55:44;;;;;;;23.35;11.50;;;4.60;99.90;;;;;;5122930;28;20398;-82
2020/12/12 06:58:22;;;;;;;25.27;13.32;;;4.70;99.90;;;;;;5123601;28;20047;-80
2020/12/12 07:00:47;;;;;;;25.48;12.73;;;4.70;99.90;;;;;;5121671;28;20085;-81
2020/12/12 07:03:20;;;;;;;24.48;11.88;;;4.80;99.90;;;;;;5123494;28;20481;-81
2020/12/12 07:05:46;;;;;;;27.10;12.77;;;4.80;99.90;;;;;;5123926;28;20068;-80
2020/12/12 07:08:11;;;;;;;23.55;12.15;;;4.80;99.90;;;;;;5122866;28;20122;-80
2020/12/12 07:10:38;;;;;;;25.35;12.50;;;4.80;99.90;;;;;;5124476;28;20477;-81
2020/12/12 07:13:05;;;;;;;25.25;12.40;;;4.80;99.90;;;;;;5123686;28;20092;-81
2020/12/12 07:15:31;;;;;;;28.02;13.30;;;4.80;99.90;;;;;;5126298;28;20044;-81
2020/12/12 07:18:02;;;;;;;26.75;14.05;;;4.80;99.90;;;;;;5124680;28;20089;-80
2020/12/12 07:20:32;;;;;;;26.38;12.55;;;4.90;99.90;;;;;;5125216;28;20040;-81
2020/12/12 07:23:00;;;;;;;26.08;13.10;;;4.90;99.90;;;;;;5125412;28;20036;-81
2020/12/12 07:25:26;;;;;;;21.98;12.30;;;5.00;99.90;;;;;;5125393;28;20400;-81
2020/12/12 07:27:51;;;;;;;26.80;12.60;;;4.90;99.90;;;;;;5125339;28;20036;-81
2020/12/12 07:30:18;;;;;;;26.23;12.48;;;4.90;99.90;;;;;;5127036;27;20035;-82
2020/12/12 07:32:43;;;;;;;22.38;11.43;;;4.90;99.90;;;;;;5126846;28;20059;-81
2020/12/12 07:35:10;;;;;;;24.00;12.23;;;5.00;99.90;;;;;;5128652;28;20039;-81
2020/12/12 07:37:36;;;;;;;24.65;12.00;;;5.00;99.90;;;;;;5130042;28;20031;-82
2020/12/12 07:40:02;;;;;;;22.83;11.63;;;5.00;99.90;;;;;;5134809;28;20058;-80
2020/12/12 07:42:33;;;;;;;24.70;12.23;;;5.00;99.90;;;;;;5119567;28;20050;-80
2020/12/12 07:45:13;;;;;;;23.70;12.65;;;5.00;99.90;;;;;;5121830;28;20400;-80
2020/12/12 07:47:40;;;;;;;23.42;12.73;;;;;;;;;;5119045;28;20035;-80
2020/12/12 07:50:06;;;;;;;22.73;12.27;;;5.00;99.90;;;;;;5119982;28;20031;-81
2020/12/12 07:52:32;;;;;;;26.65;13.00;;;4.90;99.90;;;;;;5121588;28;20393;-79
2020/12/12 07:55:16;;;;;;;25.13;12.63;;;5.00;99.90;;;;;;5119801;28;20074;-80
2020/12/12 07:57:48;;;;;;;24.65;12.65;;;4.90;99.90;;;;;;5119887;28;20039;-80
2020/12/12 08:00:13;;;;;;;24.75;12.38;;;5.00;99.90;;;;;;5117644;28;20042;-81
2020/12/12 08:02:40;;;;;;;26.90;13.35;;;5.00;99.90;;;;;;5121113;28;20397;-81
2020/12/12 08:05:07;;;;;;;23.80;12.30;;;5.00;99.90;;;;;;5121280;27;20043;-81
2020/12/12 08:07:34;;;;;;;23.88;12.65;;;5.00;99.90;;;;;;5120573;28;20063;-80
2020/12/12 08:10:00;;;;;;;24.88;13.02;;;5.10;99.90;;;;;;5119997;28;20035;-81
2020/12/12 08:12:34;;;;;;;24.70;12.57;;;5.10;99.90;;;;;;5119477;28;20031;-79
2020/12/12 08:15:23;;;;;;;25.63;13.63;;;5.10;99.90;;;;;;5120599;28;20481;-80
2020/12/12 08:17:49;;;;;;;27.70;13.68;;;5.20;99.90;;;;;;5120881;28;20031;-80
2020/12/12 08:20:17;;;;;;;23.25;12.65;;;5.20;99.90;;;;;;5120517;28;20143;-80
2020/12/12 08:22:43;;;;;;;26.52;12.98;;;5.20;99.90;;;;;;5121692;28;20031;-80
2020/12/12 08:25:10;;;;;;;25.75;13.35;;;5.20;99.90;;;;;;5121242;28;20104;-80
2020/12/12 08:27:36;;;;;;;23.98;11.65;;;5.30;99.90;;;;;;5121238;28;20355;-80
2020/12/12 08:30:05;;;;;;;23.08;11.75;;;5.30;99.90;;;;;;5118046;28;20047;-80
2020/12/12 08:32:35;;;;;;;22.50;11.13;;;5.30;99.90;;;;;;5120700;28;20066;-80
2020/12/12 08:35:20;;;;;;;23.23;11.80;;;5.30;99.90;;;;;;5121341;28;20065;-81
2020/12/12 08:37:57;;;;;;;21.17;10.63;;;5.40;99.90;;;;;;5122410;28;20044;-80
2020/12/12 08:40:25;;;;;;;27.60;12.65;;;5.40;99.90;;;;;;5118190;28;20047;-80
2020/12/12 08:42:59;;;;;;;22.05;11.45;;;5.30;99.90;;;;;;5121860;28;20051;-81
2020/12/12 08:45:26;;;;;;;26.42;12.68;;;5.30;99.90;;;;;;5121110;28;20043;-80
2020/12/12 08:48:09;;;;;;;22.98;12.25;;;5.30;99.90;;;;;;5122432;28;20028;-81
2020/12/12 08:51:00;;;;;;;25.42;12.30;;;5.40;99.90;;;;;;5121012;28;20127;-81
2020/12/12 08:53:31;;;;;;;22.38;11.63;;;5.40;99.90;;;;;;5100692;28;20047;-81
2020/12/12 08:56:09;;;;;;;23.45;12.57;;;5.50;99.90;;;;;;5120405;28;20047;-81
2020/12/12 08:58:39;;;;;;;22.80;12.13;;;5.50;99.90;;;;;;5121158;28;20075;-80
2020/12/12 09:01:13;;;;;;;21.27;11.10;;;5.60;99.90;;;;;;5120996;28;20054;-81
2020/12/12 09:03:51;;;;;;;24.95;11.80;;;5.50;99.90;;;;;;5121103;28;20050;-81
2020/12/12 09:06:18;;;;;;;22.73;12.00;;;5.50;99.90;;;;;;5121655;28;20070;-79
2020/12/12 09:08:44;;;;;;;25.13;11.95;;;5.50;99.90;;;;;;5121416;28;20115;-79
2020/12/12 09:11:10;;;;;;;25.77;11.48;;;5.50;99.90;;;;;;5121618;28;20446;-80
2020/12/12 09:13:36;;;;;;;21.35;11.25;;;5.40;99.90;;;;;;5120765;28;20035;-80
2020/12/12 09:16:02;;;;;;;23.15;12.13;;;5.50;99.90;;;;;;5120853;28;20091;-80
2020/12/12 09:18:27;;;;;;;22.88;11.45;;;5.60;99.90;;;;;;5120243;28;20040;-79
2020/12/12 09:20:53;;;;;;;22.95;11.75;;;5.60;99.90;;;;;;5127872;28;20036;-81
2020/12/12 09:23:20;;;;;;;21.45;11.38;;;5.80;99.90;;;;;;5118225;28;20478;-81
2020/12/12 09:25:45;;;;;;;22.45;11.25;;;5.80;99.90;;;;;;5119892;28;20058;-80
2020/12/12 09:28:11;;;;;;;22.48;11.10;;;5.70;99.90;;;;;;5119352;28;20032;-79
2020/12/12 09:30:36;;;;;;;19.67;10.73;;;5.80;99.90;;;;;;5119902;28;20072;-80
2020/12/12 09:33:02;;;;;;;20.17;10.65;;;5.80;99.90;;;;;;5121689;28;20046;-79
2020/12/12 09:35:28;;;;;;;23.13;11.93;;;5.80;99.90;;;;;;5121737;28;20039;-81
2020/12/12 09:37:54;;;;;;;20.35;10.85;;;5.90;99.90;;;;;;5121866;28;20040;-81
2020/12/12 09:40:20;;;;;;;21.88;11.57;;;;;;;;;;5121260;28;20096;-81
2020/12/12 09:42:46;;;;;;;23.98;12.18;;;5.90;99.90;;;;;;5121453;28;20043;-80
2020/12/12 09:45:11;;;;;;;22.85;10.93;;;5.80;99.90;;;;;;5121387;28;20454;-79
2020/12/12 09:47:38;;;;;;;21.02;10.90;;;;;;;;;;5120564;28;20092;-79
2020/12/12 09:50:04;;;;;;;21.48;11.05;;;;;;;;;;5119582;28;20086;-79
2020/12/12 09:52:29;;;;;;;22.35;11.30;;;5.60;99.90;;;;;;5120364;28;20146;-79
2020/12/12 09:54:55;;;;;;;22.05;11.20;;;5.70;99.90;;;;;;5120064;28;20068;-80
2020/12/12 09:57:25;;;;;;;19.23;10.82;;;5.70;99.90;;;;;;5119442;28;20042;-81
2020/12/12 09:59:51;;;;;;;21.92;11.13;;;5.70;99.90;;;;;;5120239;28;20054;-81
2020/12/12 10:02:16;;;;;;;28.77;11.05;;;5.80;99.90;;;;;;5118758;28;20130;-80
2020/12/12 10:04:42;;;;;;;20.50;9.80;;;5.90;99.90;;;;;;5119590;28;20096;-80
2020/12/12 10:07:07;;;;;;;20.95;10.27;;;5.90;99.90;;;;;;5120919;28;20031;-79
2020/12/12 10:09:33;;;;;;;21.17;11.00;;;6.10;99.90;;;;;;5119505;28;20047;-79
2020/12/12 10:11:59;;;;;;;19.90;10.23;;;;;;;;;;5119595;28;20397;-79
2020/12/12 10:14:25;;;;;;;19.63;9.98;;;6.00;99.90;;;;;;5121075;28;20031;-79
2020/12/12 10:16:54;;;;;;;21.60;10.48;;;6.20;99.90;;;;;;5119011;28;20044;-81
2020/12/12 10:19:20;;;;;;;19.30;10.27;;;6.10;99.90;;;;;;5117766;28;20205;-79
2020/12/12 10:21:45;;;;;;;20.25;10.38;;;6.10;99.90;;;;;;5121987;28;20070;-80
2020/12/12 10:24:11;;;;;;;20.02;9.90;;;6.10;99.90;;;;;;5117017;28;20074;-79
2020/12/12 10:26:36;;;;;;;22.35;10.40;;;6.00;99.90;;;;;;5121977;28;20401;-80
2020/12/12 10:29:02;;;;;;;20.88;10.52;;;6.00;99.90;;;;;;5119387;28;20070;-78
2020/12/12 10:31:29;;;;;;;19.65;10.75;;;;;;;;;;5120874;28;20497;-79
2020/12/12 10:33:54;;;;;;;21.35;10.75;;;6.00;99.90;;;;;;5119777;28;20051;-78
2020/12/12 10:36:20;;;;;;;19.23;10.05;;;5.90;99.90;;;;;;5119578;28;20039;-81
2020/12/12 10:38:45;;;;;;;19.23;10.27;;;5.90;99.90;;;;;;5119895;28;20047;-79
2020/12/12 10:41:12;;;;;;;22.00;10.73;;;5.90;99.90;;;;;;5121743;28;20065;-79
2020/12/12 10:43:37;;;;;;;20.65;10.77;;;6.00;99.90;;;;;;5120468;28;20062;-79
2020/12/12 10:46:03;;;;;;;22.20;11.90;;;;;;;;;;5122192;28;20749;-79
2020/12/12 10:48:30;;;;;;;20.52;10.90;;;6.10;99.90;;;;;;5120116;28;20051;-79
2020/12/12 10:50:56;;;;;;;22.88;11.68;;;6.10;99.90;;;;;;5117838;28;20059;-79
2020/12/12 10:53:21;;;;;;;23.75;11.55;;;6.10;99.90;;;;;;5114300;28;20159;-79
2020/12/12 10:55:47;;;;;;;21.15;11.52;;;6.00;99.90;;;;;;5116323;28;20573;-80
2020/12/12 10:58:13;;;;;;;19.25;10.15;;;6.00;99.90;;;;;;5121057;28;20629;-81
2020/12/12 11:00:42;;;;;;;23.35;10.85;;;6.00;99.90;;;;;;5119345;28;20063;-79
2020/12/12 11:03:08;;;;;;;19.95;9.48;;;6.00;99.90;;;;;;5121095;28;20043;-81
2020/12/12 11:05:35;;;;;;;21.48;10.77;;;6.00;99.90;;;;;;5119639;28;20066;-80
2020/12/12 11:08:01;;;;;;;19.77;9.93;;;6.00;99.90;;;;;;5120711;28;20093;-80
2020/12/12 11:10:27;;;;;;;18.60;9.85;;;6.10;99.90;;;;;;5119109;28;20043;-81
2020/12/12 11:12:52;;;;;;;20.95;10.52;;;6.10;99.90;;;;;;5121419;28;20043;-80
2020/12/12 11:15:18;;;;;;;20.08;10.98;;;;;;;;;;5121499;28;20032;-79
2020/12/12 11:17:45;;;;;;;18.73;10.50;;;6.20;99.90;;;;;;5121163;28;20085;-81
2020/12/12 11:20:11;;;;;;;17.23;9.73;;;6.20;99.90;;;;;;5131379;28;20040;-80
2020/12/12 11:22:37;;;;;;;20.95;11.15;;;6.20;99.90;;;;;;5121164;28;20070;-79
2020/12/12 11:25:04;;;;;;;17.95;10.05;;;6.20;99.90;;;;;;5120010;28;20094;-78
2020/12/12 11:27:29;;;;;;;22.80;11.27;;;6.20;99.90;;;;;;5118719;28;20051;-80
2020/12/12 11:29:55;;;;;;;19.20;9.15;;;6.20;99.90;;;;;;5115690;28;20088;-79
2020/12/12 11:32:22;;;;;;;19.45;10.32;;;6.20;99.90;;;;;;5112840;28;20047;-78
2020/12/12 11:34:53;;;;;;;17.20;9.48;;;;;;;;;;5118701;28;20035;-79
2020/12/12 11:37:59;;;;;;;20.10;10.55;;;6.20;99.90;;;;;;5118666;27;20122;-80
2020/12/12 11:40:18;;;;;;;17.95;9.88;;;6.30;99.90;;;;;;5116682;28;20074;-79
2020/12/12 11:43:13;;;;;;;18.98;10.05;;;6.30;99.90;;;;;;5118141;28;20566;-79
2020/12/12 11:48:07;;;;;;;17.05;9.30;;;6.40;99.90;;;;;;5116889;28;20091;-78
2020/12/12 11:50:32;;;;;;;19.98;10.35;;;6.30;99.90;;;;;;5115681;28;20552;-78
2020/12/12 11:52:58;;;;;;;18.70;10.27;;;6.40;99.90;;;;;;5112964;28;20139;-79
2020/12/12 11:55:24;;;;;;;19.42;10.38;;;6.30;99.90;;;;;;5112795;28;20122;-78
2020/12/12 11:57:50;;;;;;;15.02;9.00;;;6.30;99.90;;;;;;5110699;28;20254;-79
2020/12/12 12:00:16;;;;;;;18.00;9.70;;;6.40;99.90;;;;;;5111726;28;20096;-80
2020/12/12 12:02:42;;;;;;;21.27;9.80;;;6.30;99.90;;;;;;5115651;28;20101;-81
2020/12/12 12:05:08;;;;;;;20.38;9.77;;;6.40;99.90;;;;;;5114645;28;20071;-78
2020/12/12 12:07:41;;;;;;;19.08;9.05;;;6.50;99.90;;;;;;5114699;28;20477;-80
2020/12/12 12:12:42;;;;;;;16.38;9.07;;;6.50;99.90;;;;;;5116697;28;20613;-79
2020/12/12 12:15:07;;;;;;;17.70;9.85;;;6.60;99.90;;;;;;5116352;28;20092;-78
2020/12/12 12:17:33;;;;;;;15.38;9.40;;;6.70;99.90;;;;;;5115497;28;20427;-80
2020/12/12 12:19:59;;;;;;;20.98;11.18;;;6.60;99.90;;;;;;5114970;28;20553;-80
2020/12/12 12:22:25;;;;;;;21.30;10.35;;;6.60;99.90;;;;;;5115766;27;20031;-79
2020/12/12 12:24:50;;;;;;;16.98;9.57;;;6.70;99.90;;;;;;5116334;28;20428;-80
2020/12/12 12:27:16;;;;;;;16.73;9.13;;;6.70;99.90;;;;;;5117483;28;20039;-79
2020/12/12 12:29:42;;;;;;;18.05;9.15;;;6.80;99.90;;;;;;5115334;28;20043;-79
2020/12/12 12:32:08;;;;;;;17.23;9.55;;;;;;;;;;5113798;28;20043;-79
2020/12/12 12:34:34;;;;;;;18.77;9.48;;;6.90;99.90;;;;;;5114101;28;20040;-80
2020/12/12 12:37:00;;;;;;;17.60;9.68;;;;;;;;;;5115882;28;20475;-79
2020/12/12 12:39:25;;;;;;;19.55;9.93;;;6.90;99.90;;;;;;5114500;28;20043;-81
2020/12/12 12:41:51;;;;;;;21.27;9.73;;;6.90;99.90;;;;;;5115085;28;20043;-80
2020/12/12 12:44:17;;;;;;;18.67;10.20;;;6.90;99.90;;;;;;5115517;28;20067;-78
2020/12/12 12:46:45;;;;;;;22.35;10.38;;;6.90;99.90;;;;;;5113424;28;20074;-78
2020/12/12 12:49:11;;;;;;;16.00;9.43;;;6.80;99.90;;;;;;5110437;28;20047;-79
2020/12/12 12:51:38;;;;;;;18.45;9.18;;;6.70;99.90;;;;;;5111048;28;20625;-78